Time;durP1;ratioP1;P1;durP2;ratioP2;P2;SDS_P1;SDS_P2;PMS_P1;PMS_P2;Temp;Humidity;BMP_temperature;BMP_pressure;BME280_temperature;BME280_humidity;BME280_pressure;Samples;Min_cycle;Max_cycle;Signal;HPM_P1;HPM_P2
2023/08/04 08:59:31;;;;;;;7.70;3.17;;;;;;;16.91;100.00;101194.22;5089874;27;20409;-75
2023/08/04 09:01:56;;;;;;;6.32;2.85;;;;;;;17.00;100.00;101187.22;5074301;28;20415;-75
2023/08/04 09:04:22;;;;;;;3.95;2.10;;;;;;;17.12;100.00;101179.69;5091253;28;20088;-75
2023/08/04 09:06:48;;;;;;;7.82;2.60;;;;;;;17.13;100.00;101184.03;5078242;28;20471;-75
2023/08/04 09:09:14;;;;;;;4.55;2.42;;;;;;;17.24;100.00;101200.53;5069464;28;20044;-76
2023/08/04 09:11:40;;;;;;;4.25;2.50;;;;;;;17.18;100.00;101200.50;5070015;28;20468;-75
2023/08/04 09:14:06;;;;;;;7.32;2.60;;;;;;;17.26;100.00;101198.38;5065847;28;20027;-75
2023/08/04 09:16:36;;;;;;;7.55;2.92;;;;;;;17.14;100.00;101201.28;5049584;28;20061;-76
2023/08/04 09:19:07;;;;;;;8.55;3.13;;;;;;;16.99;100.00;101208.25;5047900;28;20392;-76
2023/08/04 09:21:33;;;;;;;8.10;3.28;;;;;;;16.83;100.00;101200.97;5048518;28;20199;-75
2023/08/04 09:24:01;;;;;;;4.00;2.42;;;;;;;16.65;100.00;101213.06;5049228;28;20395;-75
2023/08/04 09:26:41;;;;;;;4.70;2.35;;;;;;;16.63;100.00;101207.06;5049417;28;20025;-75
2023/08/04 09:29:06;;;;;;;4.32;2.70;;;;;;;16.63;100.00;101207.88;5049051;28;20025;-75
2023/08/04 09:31:36;;;;;;;11.32;3.38;;;;;;;16.66;100.00;101212.00;5047979;28;20491;-75
2023/08/04 09:34:06;;;;;;;7.35;2.83;;;;;;;16.67;100.00;101202.72;5047866;28;20461;-75
2023/08/04 09:36:47;;;;;;;7.60;2.70;;;;;;;16.68;100.00;101209.00;5049214;28;20026;-75
2023/08/04 09:39:13;;;;;;;4.90;2.42;;;;;;;16.94;100.00;101201.91;5047887;28;20082;-76
2023/08/04 09:41:42;;;;;;;5.72;2.78;;;;;;;16.93;100.00;101206.56;5048223;28;20101;-75
2023/08/04 09:44:08;;;;;;;4.05;2.25;;;;;;;17.11;100.00;101218.22;5047999;28;20155;-76
2023/08/04 09:46:54;;;;;;;4.85;2.80;;;;;;;17.25;100.00;101213.13;5048115;28;20116;-76
2023/08/04 09:49:20;;;;;;;8.15;3.15;;;;;;;17.25;100.00;101215.88;5047659;28;20029;-75
2023/08/04 09:51:45;;;;;;;6.13;2.85;;;;;;;17.26;100.00;101217.53;5047528;28;20032;-75
2023/08/04 09:54:11;;;;;;;9.15;2.90;;;;;;;17.40;100.00;101207.78;5048553;28;20033;-75
2023/08/04 09:56:36;;;;;;;6.07;3.10;;;;;;;17.51;100.00;101204.03;5047593;28;20021;-75
2023/08/04 09:59:03;;;;;;;5.40;2.95;;;;;;;17.57;100.00;101212.28;5046873;28;20488;-76
2023/08/04 10:01:28;;;;;;;5.05;2.92;;;;;;;17.63;100.00;101211.22;5052632;28;20105;-75
2023/08/04 10:03:57;;;;;;;5.88;2.78;;;;;;;17.71;100.00;101213.47;5068609;28;20036;-76
2023/08/04 10:06:26;;;;;;;5.30;2.38;;;;;;;17.67;100.00;101212.34;5068199;28;20487;-75
2023/08/04 10:08:54;;;;;;;4.97;2.00;;;;;;;17.63;100.00;101219.44;5064875;28;20068;-76
2023/08/04 10:11:20;;;;;;;4.78;1.80;;;;;;;17.53;100.00;101223.75;5055036;28;20553;-75
2023/08/04 10:13:49;;;;;;;3.28;1.60;;;;;;;17.32;100.00;101232.91;5055142;28;20352;-75
2023/08/04 10:16:18;;;;;;;3.20;1.63;;;;;;;17.09;100.00;101223.94;5054000;28;20020;-75
2023/08/04 10:18:49;;;;;;;3.15;1.50;;;;;;;16.93;100.00;101224.88;5055098;28;20035;-75
2023/08/04 10:21:17;;;;;;;3.20;1.75;;;;;;;16.88;100.00;101217.47;5054891;28;20021;-75
2023/08/04 10:23:42;;;;;;;5.28;2.15;;;;;;;16.91;100.00;101216.09;5054884;28;20475;-75
2023/08/04 10:26:10;;;;;;;3.33;1.80;;;;;;;16.91;100.00;101221.56;5054700;28;20055;-75
2023/08/04 10:28:58;;;;;;;6.10;2.42;;;;;;;17.07;100.00;101220.63;5054938;28;20027;-75
2023/08/04 10:31:43;;;;;;;7.10;2.30;;;;;;;17.21;100.00;101218.31;5053746;28;20025;-76
2023/08/04 10:34:27;;;;;;;7.65;2.60;;;;;;;17.44;100.00;101214.38;5053505;28;20021;-75
2023/08/04 10:37:17;;;;;;;4.57;2.00;;;;;;;17.72;100.00;101220.56;5053545;28;20021;-76
2023/08/04 10:39:57;;;;;;;6.20;2.08;;;;;;;17.81;100.00;101226.38;5049465;28;20135;-75
2023/08/04 10:42:27;;;;;;;6.72;1.92;;;;;;;17.78;100.00;101226.91;5054687;28;20099;-75
2023/08/04 10:44:55;;;;;;;4.65;1.85;;;;;;;17.83;100.00;101236.00;5054721;28;20430;-75
2023/08/04 10:47:51;;;;;;;5.30;2.00;;;;;;;18.00;100.00;101237.78;5053541;28;20021;-75
2023/08/04 10:50:16;;;;;;;4.22;1.60;;;;;;;17.96;100.00;101239.38;5054392;28;20043;-75
2023/08/04 10:52:42;;;;;;;5.05;1.67;;;;;;;18.01;100.00;101237.50;5054542;28;20558;-75
2023/08/04 10:55:11;;;;;;;6.47;2.20;;;;;;;18.03;100.00;101237.22;5052944;28;20123;-75
2023/08/04 10:57:38;;;;;;;4.63;1.60;;;;;;;18.06;100.00;101244.91;5054436;28;20044;-77
2023/08/04 11:00:06;;;;;;;6.05;2.10;;;;;;;17.92;100.00;101250.06;5053008;28;20029;-75
2023/08/04 11:02:32;;;;;;;5.15;2.20;;;;;;;17.86;100.00;101251.88;5035145;28;20038;-77
2023/08/04 11:04:58;;;;;;;4.03;1.73;;;;;;;17.93;100.00;101248.94;5034383;28;20542;-76
2023/08/04 11:07:26;;;;;;;5.50;1.83;;;;;;;18.11;100.00;101255.88;5033009;28;20022;-76
2023/08/04 11:09:52;;;;;;;8.38;2.08;;;;;;;18.33;100.00;101246.69;5034301;28;20025;-76
2023/08/04 11:12:18;;;;;;;4.93;1.85;;;;;;;18.28;100.00;101252.94;5033284;28;20310;-76
2023/08/04 11:14:44;;;;;;;5.13;1.90;;;;;;;18.17;100.00;101265.78;5033451;28;20263;-76
2023/08/04 11:17:20;;;;;;;3.58;1.70;;;;;;;18.08;100.00;101261.91;5034164;28;20026;-76
2023/08/04 11:19:47;;;;;;;2.17;1.30;;;;;;;17.95;100.00;101259.63;5033524;28;20380;-76
2023/08/04 11:22:18;;;;;;;2.17;1.25;;;;;;;17.73;100.00;101266.03;5032939;28;20025;-76
2023/08/04 11:24:44;;;;;;;3.28;1.40;;;;;;;17.67;100.00;101262.44;5034067;28;20051;-76
2023/08/04 11:27:11;;;;;;;2.70;1.35;;;;;;;17.66;100.00;101265.44;5034152;28;20156;-76
2023/08/04 11:29:36;;;;;;;4.60;1.58;;;;;;;17.55;100.00;101270.00;5037869;28;20030;-76
2023/08/04 11:32:08;;;;;;;2.80;1.33;;;;;;;17.58;100.00;101274.94;5035547;28;20036;-76
2023/08/04 11:34:34;;;;;;;3.53;1.75;;;;;;;17.58;100.00;101277.69;5053779;28;20033;-75
2023/08/04 11:36:59;;;;;;;3.88;1.55;;;;;;;17.57;100.00;101273.28;5045889;28;20453;-77
2023/08/04 11:39:27;;;;;;;4.30;1.67;;;;;;;17.61;100.00;101279.91;5034218;28;20026;-76
2023/08/04 11:41:52;;;;;;;4.05;1.60;;;;;;;17.70;100.00;101272.03;5033817;28;20044;-76
2023/08/04 11:44:18;;;;;;;5.35;1.95;;;;;;;17.98;100.00;101267.31;5033944;28;20453;-76
2023/08/04 11:46:43;;;;;;;4.65;1.70;;;;;;;18.12;100.00;101273.16;5034233;28;20025;-74
2023/08/04 11:49:09;;;;;;;5.30;2.10;;;;;;;18.34;100.00;101275.72;5047287;28;20037;-75
2023/08/04 11:51:34;;;;;;;3.38;1.45;;;;;;;18.42;100.00;101277.97;5057322;28;20071;-74
2023/08/04 11:53:59;;;;;;;6.53;1.85;;;;;;;18.59;100.00;101275.81;5037327;28;20037;-75
2023/08/04 11:56:35;;;;;;;5.93;1.92;;;;;;;18.58;100.00;101276.94;5033431;28;20037;-75
2023/08/04 11:59:11;;;;;;;4.57;1.38;;;;;;;18.56;100.00;101286.50;5033549;28;20084;-75
2023/08/04 12:01:37;;;;;;;3.35;1.65;;;;;;;18.50;100.00;101273.88;5038743;28;20051;-75
2023/08/04 12:04:18;;;;;;;4.75;1.40;;;;;;;18.46;100.00;101283.72;5053426;28;20112;-75
2023/08/04 12:06:44;;;;;;;;;;;;;;;18.54;100.00;101275.81;5053671;28;20106;-75
2023/08/04 12:09:11;;;;;;;3.50;1.40;;;;;;;18.34;100.00;101283.94;5052848;28;20575;-75
2023/08/04 12:11:46;;;;;;;3.83;1.63;;;;;;;18.40;100.00;101288.34;5053076;28;20029;-75
2023/08/04 12:14:11;;;;;;;5.68;2.00;;;;;;;18.44;100.00;101288.66;5052840;28;20053;-75
2023/08/04 12:16:57;;;;;;;3.22;1.45;;;;;;;18.69;100.00;101286.03;5053218;28;20053;-75
2023/08/04 12:19:24;;;;;;;4.82;1.80;;;;;;;18.79;100.00;101285.22;5052725;28;20025;-75
2023/08/04 12:21:51;;;;;;;6.35;1.80;;;;;;;18.99;100.00;101284.47;5053130;28;20087;-75
2023/08/04 12:24:17;;;;;;;2.42;1.15;;;;;;;19.15;100.00;101296.28;5052783;28;20021;-75
2023/08/04 12:26:42;;;;;;;4.40;1.45;;;;;;;19.38;100.00;101289.44;5053018;28;20029;-75
2023/08/04 12:29:09;;;;;;;4.00;1.40;;;;;;;19.63;100.00;101296.88;5052763;28;20115;-75
2023/08/04 12:31:35;;;;;;;3.90;1.45;;;;;;;19.64;100.00;101284.81;5053318;28;20025;-75
2023/08/04 12:34:00;;;;;;;4.72;1.38;;;;;;;19.98;100.00;101280.66;5052609;28;20075;-74
2023/08/04 12:36:29;;;;;;;3.20;1.48;;;;;;;19.97;100.00;101277.09;5051255;28;20029;-75
2023/08/04 12:38:54;;;;;;;3.80;1.45;;;;;;;19.88;100.00;101291.66;5052699;28;20025;-75
2023/08/04 12:41:19;;;;;;;4.53;1.70;;;;;;;19.87;100.00;101301.84;5052488;28;20082;-74
2023/08/04 12:43:45;;;;;;;3.78;1.67;;;;;;;19.47;100.00;101308.94;5052862;28;20025;-75
2023/08/04 12:46:10;;;;;;;3.80;1.65;;;;;;;19.07;100.00;101310.56;5052346;28;20028;-75
2023/08/04 12:48:35;;;;;;;3.60;1.52;;;;;;;18.54;100.00;101314.19;5052798;28;20444;-75
2023/08/04 12:51:01;;;;;;;2.40;1.35;;;;;;;18.29;100.00;101303.09;5052997;28;20029;-75
2023/08/04 12:53:26;;;;;;;4.40;1.30;;;;;;;18.30;100.00;101307.47;5052420;28;20029;-74
2023/08/04 12:55:51;;;;;;;4.47;1.33;;;;;;;18.21;100.00;101310.72;5052267;28;20083;-74
2023/08/04 12:58:17;;;;;;;4.93;1.85;;;;;;;18.17;100.00;101303.31;5052098;28;20060;-75
2023/08/04 13:00:42;;;;;;;4.72;1.85;;;;;;;18.16;100.00;101307.97;5048725;28;20052;-75
2023/08/04 13:03:07;;;;;;;6.18;2.30;;;;;;;18.25;100.00;101311.00;5031227;28;20041;-75
2023/08/04 13:05:32;;;;;;;8.07;2.20;;;;;;;18.34;100.00;101311.34;5032563;28;20048;-75
2023/08/04 13:07:58;;;;;;;6.00;2.13;;;;;;;18.36;100.00;101309.19;5032468;28;20041;-75
2023/08/04 13:10:24;;;;;;;5.85;2.20;;;;;;;18.33;100.00;101304.22;5031120;28;20246;-75
2023/08/04 13:12:49;;;;;;;7.50;2.25;;;;;;;18.30;100.00;101302.84;5032463;28;20029;-75
2023/08/04 13:15:15;;;;;;;4.97;1.98;;;;;;;18.43;100.00;101301.50;5032280;28;20477;-75
2023/08/04 13:17:40;;;;;;;6.90;1.73;;;;;;;18.45;100.00;101298.50;5032086;28;20021;-75
2023/08/04 13:20:08;;;;;;;3.50;1.85;;;;;;;18.60;100.00;101304.91;5032194;28;20026;-75
2023/08/04 13:22:35;;;;;;;4.18;1.52;;;;;;;18.73;100.00;101310.97;5031961;28;20030;-74
2023/08/04 13:25:01;;;;;;;4.72;1.63;;;;;;;18.86;100.00;101313.25;5032198;28;20051;-75
2023/08/04 13:27:26;;;;;;;3.15;1.42;;;;;;;18.99;100.00;101309.16;5032038;28;20013;-75
2023/08/04 13:29:51;;;;;;;5.60;1.90;;;;;;;19.09;100.00;101305.63;5032103;28;20105;-75
2023/08/04 13:32:17;;;;;;;3.63;1.60;;;;;;;19.01;100.00;101312.47;5030842;28;20121;-75
2023/08/04 13:34:42;;;;;;;4.80;1.50;;;;;;;18.99;100.00;101313.81;5031951;28;20033;-75
2023/08/04 13:37:08;;;;;;;5.03;1.70;;;;;;;19.00;100.00;101320.97;5032101;28;20040;-75
2023/08/04 13:39:33;;;;;;;4.40;1.55;;;;;;;18.95;100.00;101324.50;5032341;28;20022;-76
2023/08/04 13:41:58;;;;;;;3.70;1.48;;;;;;;19.11;100.00;101323.47;5031538;28;20049;-77
2023/08/04 13:44:24;;;;;;;5.95;1.58;;;;;;;19.32;100.00;101319.91;5031711;28;20029;-75
2023/08/04 13:46:49;;;;;;;6.18;1.80;;;;;;;19.34;100.00;101312.22;5034528;28;20037;-76
2023/08/04 13:49:14;;;;;;;5.80;1.90;;;;;;;19.56;100.00;101309.22;5034148;28;20373;-82
2023/08/04 13:51:40;;;;;;;4.85;1.50;;;;;;;19.64;100.00;101309.50;5034564;28;20040;-76
2023/08/04 13:54:05;;;;;;;3.30;1.55;;;;;;;19.64;100.00;101308.66;5034999;28;20460;-80
2023/08/04 13:56:30;;;;;;;4.43;1.67;;;;;;;19.75;100.00;101315.00;5035565;28;20032;-76
2023/08/04 13:58:55;;;;;;;4.25;1.60;;;;;;;19.97;100.00;101318.31;5033244;28;20576;-77
2023/08/04 14:01:22;;;;;;;5.38;1.40;;;;;;;20.13;100.00;101310.84;5043549;28;20121;-77
2023/08/04 14:03:48;;;;;;;3.83;1.60;;;;;;;20.16;100.00;101315.78;5055768;28;20029;-77
2023/08/04 14:06:13;;;;;;;4.60;1.55;;;;;;;20.31;100.00;101328.66;5029043;28;20025;-77
2023/08/04 14:08:38;;;;;;;3.00;1.17;;;;;;;20.48;91.44;101317.34;5035708;28;20033;-76
2023/08/04 14:11:03;;;;;;;2.78;1.23;;;;;;;20.75;100.00;101326.34;5030927;28;20021;-77
2023/08/04 14:13:29;;;;;;;1.73;0.88;;;;;;;20.59;86.80;101320.88;5020529;28;20549;-76
2023/08/04 14:15:54;;;;;;;2.28;0.90;;;;;;;20.41;95.55;101313.25;5015577;28;20117;-75
2023/08/04 14:18:20;;;;;;;4.15;1.08;;;;;;;20.23;99.61;101321.00;5033946;28;20029;-76
2023/08/04 14:20:45;;;;;;;2.55;1.00;;;;;;;20.22;99.00;101319.34;5049416;28;20078;-75
2023/08/04 14:23:11;;;;;;;3.78;1.23;;;;;;;20.41;95.62;101311.34;5046180;28;20025;-78
2023/08/04 14:25:36;;;;;;;1.67;0.90;;;;;;;20.47;94.07;101325.88;5055140;28;20380;-76
2023/08/04 14:28:01;;;;;;;2.45;1.17;;;;;;;20.21;84.99;101322.38;5038087;28;20598;-76
2023/08/04 14:30:26;;;;;;;1.58;1.20;;;;;;;19.96;100.00;101324.09;5050704;28;20020;-76
2023/08/04 14:32:52;;;;;;;1.98;1.17;;;;;;;19.77;100.00;101324.63;5035934;28;20037;-75
2023/08/04 14:35:17;;;;;;;1.80;0.95;;;;;;;19.75;100.00;101326.00;5034716;28;20028;-77
2023/08/04 14:37:42;;;;;;;2.22;0.90;;;;;;;19.84;100.00;101335.34;5034869;28;20457;-76
2023/08/04 14:40:08;;;;;;;1.75;0.90;;;;;;;19.92;100.00;101332.03;5051753;28;20031;-77
2023/08/04 14:42:33;;;;;;;3.63;1.17;;;;;;;19.90;100.00;101337.00;5055073;28;20032;-77
2023/08/04 14:44:59;;;;;;;2.28;1.23;;;;;;;19.83;93.90;101328.19;5054878;28;20472;-75
2023/08/04 14:47:24;;;;;;;1.30;1.05;;;;;;;19.77;100.00;101332.88;5054436;28;20025;-76
2023/08/04 14:49:49;;;;;;;1.17;0.73;;;;;;;19.67;98.43;101327.34;5041597;28;20051;-76
2023/08/04 14:52:15;;;;;;;3.45;1.10;;;;;;;19.75;100.00;101326.81;5042917;28;20044;-76
2023/08/04 14:54:40;;;;;;;1.10;0.90;;;;;;;20.10;98.55;101327.88;5043552;28;20029;-76
2023/08/04 14:57:06;;;;;;;2.63;1.02;;;;;;;20.33;77.72;101326.44;5038380;28;20127;-75
2023/08/04 14:59:32;;;;;;;2.03;1.08;;;;;;;20.56;72.75;101337.91;5034184;28;20033;-79
2023/08/04 15:01:58;;;;;;;2.05;0.80;;;;;;;20.72;69.27;101333.22;5031724;28;20076;-77
2023/08/04 15:04:24;;;;;;;1.80;0.90;;;;;;;20.84;69.63;101330.97;5033967;28;20029;-76
2023/08/04 15:06:49;;;;;;;1.83;0.73;;;;;;;21.04;67.65;101335.53;5032974;28;20125;-77
2023/08/04 15:09:14;;;;;;;1.23;0.88;;;;;;;21.03;69.06;101331.16;5034064;28;20052;-76
2023/08/04 15:11:40;;;;;;;3.28;0.90;;;;;;;20.80;72.87;101335.38;5033749;28;20056;-76
2023/08/04 15:14:05;;;;;;;0.95;0.80;;;;;;;21.10;72.43;101325.31;5034118;28;20395;-76
2023/08/04 15:16:31;;;;;;;1.27;1.00;;;;;;;21.30;65.70;101340.88;5034160;28;20033;-75
2023/08/04 15:18:56;;;;;;;1.23;0.70;;;;;;;21.90;63.73;101335.19;5033985;28;20469;-75
2023/08/04 15:21:21;;;;;;;2.08;0.82;;;;;;;22.39;61.30;101336.13;5033845;28;20039;-77
2023/08/04 15:23:47;;;;;;;2.05;1.00;;;;;;;22.77;61.05;101330.69;5033630;28;20021;-76
2023/08/04 15:26:14;;;;;;;1.45;1.00;;;;;;;23.13;59.63;101343.19;5033975;28;20526;-76
2023/08/04 15:28:40;;;;;;;1.65;0.90;;;;;;;23.38;57.22;101343.94;5032022;28;20029;-76
2023/08/04 15:31:06;;;;;;;4.05;1.20;;;;;;;23.54;57.67;101346.16;5033216;28;20034;-75
2023/08/04 15:33:33;;;;;;;3.85;1.13;;;;;;;23.95;55.23;101346.63;5033148;28;20060;-75
2023/08/04 15:35:59;;;;;;;1.40;0.95;;;;;;;24.15;55.74;101349.00;5033375;28;20036;-77
2023/08/04 15:38:24;;;;;;;2.90;1.10;;;;;;;24.29;52.73;101351.81;5032237;28;20029;-75
2023/08/04 15:41:07;;;;;;;1.63;1.00;;;;;;;24.32;57.03;101344.84;5034000;28;20407;-75
2023/08/04 15:43:36;;;;;;;8.05;1.27;;;;;;;24.06;54.88;101348.91;5033257;28;20033;-75
2023/08/04 15:46:02;;;;;;;1.00;0.90;;;;;;;24.15;53.73;101348.19;5033792;28;20059;-76
2023/08/04 15:48:28;;;;;;;3.10;0.98;;;;;;;23.56;54.07;101356.91;5032142;28;20029;-76
2023/08/04 15:50:59;;;;;;;2.75;1.05;;;;;;;22.87;56.81;101350.97;5033733;28;20033;-76
2023/08/04 15:53:24;;;;;;;;;;;;;;;23.13;60.65;101352.31;5033628;28;20033;-76
2023/08/04 15:55:49;;;;;;;3.33;1.20;;;;;;;22.32;60.34;101354.13;5031653;28;19913;-76
2023/08/04 15:58:15;;;;;;;2.03;1.02;;;;;;;22.32;61.98;101351.38;5033109;28;20076;-77
2023/08/04 16:00:40;;;;;;;1.42;0.90;;;;;;;22.42;60.66;101357.59;5028939;28;20111;-75
2023/08/04 16:03:05;;;;;;;4.53;1.50;;;;;;;22.70;59.88;101355.06;5044278;28;20034;-78
2023/08/04 16:05:31;;;;;;;1.60;1.02;;;;;;;22.92;60.75;101356.44;5032878;28;20030;-76
2023/08/04 16:07:56;;;;;;;1.30;0.98;;;;;;;23.08;62.29;101351.53;5032551;28;20029;-76
2023/08/04 16:10:22;;;;;;;2.35;1.00;;;;;;;23.04;60.32;101361.50;5032839;28;20112;-77
2023/08/04 16:12:47;;;;;;;3.63;1.20;;;;;;;22.83;61.51;101359.03;5035645;28;20438;-75
2023/08/04 16:15:13;;;;;;;3.88;1.02;;;;;;;22.67;62.92;101363.09;5027278;28;20030;-75
